Time;durP1;ratioP1;P1;durP2;ratioP2;P2;SDS_P1;SDS_P2;PMS_P1;PMS_P2;Temp;Humidity;BMP_temperature;BMP_pressure;BME280_temperature;BME280_humidity;BME280_pressure;Samples;Min_cycle;Max_cycle;Signal;HPM_P1;HPM_P2
2022/04/15 00:00:41;;;;;;;80.65;30.38;;;;;;;9.30;100.00;102457.38;5004198;28;20056;-47
2022/04/15 00:03:07;;;;;;;76.60;30.02;;;;;;;9.23;100.00;102457.00;5001367;28;20160;-48
2022/04/15 00:05:45;;;;;;;79.30;30.38;;;;;;;9.20;100.00;102456.34;5011514;28;20030;-48
2022/04/15 00:08:11;;;;;;;76.43;29.85;;;;;;;9.16;100.00;102461.06;5020442;28;20061;-47
2022/04/15 00:10:45;;;;;;;76.03;30.25;;;;;;;9.13;100.00;102451.50;5012558;28;20074;-47
2022/04/15 00:13:12;;;;;;;75.63;29.20;;;;;;;9.10;100.00;102453.53;5020621;28;20024;-48
2022/04/15 00:15:40;;;;;;;72.05;30.08;;;;;;;9.08;100.00;102455.44;5020539;28;20321;-47
2022/04/15 00:18:06;;;;;;;78.18;28.73;;;;;;;9.02;100.00;102448.75;5018879;28;20029;-47
2022/04/15 00:20:32;;;;;;;74.18;29.77;;;;;;;9.00;100.00;102452.50;5004151;28;20420;-50
2022/04/15 00:22:58;;;;;;;78.43;30.52;;;;;;;8.93;100.00;102452.94;5010230;28;20487;-49
2022/04/15 00:25:25;;;;;;;79.97;30.85;;;;;;;8.87;100.00;102456.03;5020165;28;20029;-51
2022/04/15 00:27:51;;;;;;;69.07;30.08;;;;;;;8.80;100.00;102448.59;5020991;28;20147;-51
2022/04/15 00:30:16;;;;;;;78.75;29.85;;;;;;;8.73;100.00;102457.03;5020260;28;20029;-47
2022/04/15 00:32:42;;;;;;;75.15;29.67;;;;;;;8.76;100.00;102455.97;5018859;28;20223;-48
2022/04/15 00:35:08;;;;;;;80.40;31.13;;;;;;;8.76;100.00;102459.47;5003252;28;20415;-47
2022/04/15 00:37:34;;;;;;;74.57;29.42;;;;;;;8.74;100.00;102460.53;5017098;28;20053;-47
2022/04/15 00:40:02;;;;;;;83.65;30.33;;;;;;;8.71;100.00;102463.44;5007036;28;20048;-49
2022/04/15 00:42:28;;;;;;;74.88;30.65;;;;;;;8.66;100.00;102474.41;5020859;28;20021;-46
2022/04/15 00:44:54;;;;;;;79.07;32.30;;;;;;;8.63;100.00;102471.13;5019871;28;20063;-47
2022/04/15 00:47:36;;;;;;;77.72;30.15;;;;;;;8.63;100.00;102479.09;5005331;28;20018;-47
2022/04/15 00:50:03;;;;;;;79.85;30.15;;;;;;;8.57;100.00;102483.03;5017398;28;20490;-48
2022/04/15 00:52:33;;;;;;;83.90;31.48;;;;;;;8.47;100.00;102476.63;5020052;28;20327;-47
2022/04/15 00:55:02;;;;;;;84.53;31.88;;;;;;;8.45;100.00;102481.22;5013124;28;20014;-47
2022/04/15 00:57:29;;;;;;;80.35;31.67;;;;;;;8.35;100.00;102478.31;5000547;28;20362;-47
2022/04/15 00:59:58;;;;;;;73.57;31.10;;;;;;;8.25;100.00;102478.13;5000482;28;20497;-47
2022/04/15 01:02:26;;;;;;;80.72;31.80;;;;;;;8.22;100.00;102465.84;4998626;28;20056;-50
2022/04/15 01:04:52;;;;;;;83.22;31.13;;;;;;;8.27;100.00;102480.69;5001110;28;20033;-46
2022/04/15 01:07:22;;;;;;;74.68;30.70;;;;;;;8.23;100.00;102477.34;5000030;28;20036;-49
2022/04/15 01:09:51;;;;;;;73.53;30.52;;;;;;;8.26;100.00;102478.97;4999699;28;20104;-49
2022/04/15 01:12:17;;;;;;;80.18;30.25;;;;;;;8.20;100.00;102480.25;5017766;28;20090;-47
2022/04/15 01:14:43;;;;;;;81.43;30.08;;;;;;;8.19;100.00;102478.53;5019486;28;20504;-46
2022/04/15 01:17:09;;;;;;;75.22;29.75;;;;;;;8.15;100.00;102477.91;5018087;28;20068;-48
2022/04/15 01:19:34;;;;;;;78.30;29.45;;;;;;;8.12;100.00;102487.91;5014145;28;20388;-48
2022/04/15 01:22:02;;;;;;;69.78;29.17;;;;;;;8.08;100.00;102484.59;5000737;28;20040;-48
2022/04/15 01:24:29;;;;;;;71.95;29.95;;;;;;;8.07;100.00;102485.53;4999294;28;20064;-49
2022/04/15 01:26:54;;;;;;;68.82;29.35;;;;;;;8.08;100.00;102481.06;5014003;28;20030;-47
2022/04/15 01:29:19;;;;;;;72.20;28.42;;;;;;;8.07;100.00;102482.03;5019208;28;20044;-51
2022/04/15 01:31:45;;;;;;;72.43;28.10;;;;;;;8.06;100.00;102486.47;5018018;28;20033;-48
2022/04/15 01:34:10;;;;;;;75.50;28.20;;;;;;;8.01;100.00;102486.81;5017726;28;20160;-51
2022/04/15 01:36:35;;;;;;;69.90;27.58;;;;;;;8.02;100.00;102487.66;5019917;28;20053;-47
2022/04/15 01:39:02;;;;;;;72.82;27.33;;;;;;;7.98;100.00;102491.50;5018970;28;20615;-48
2022/04/15 01:41:27;;;;;;;63.88;25.30;;;;;;;7.92;100.00;102490.09;5004236;28;20485;-47
2022/04/15 01:43:52;;;;;;;55.90;24.92;;;;;;;7.92;100.00;102497.22;5014919;28;20269;-47
2022/04/15 01:46:18;;;;;;;62.72;24.98;;;;;;;7.92;100.00;102497.22;4999356;28;20038;-48
2022/04/15 01:48:43;;;;;;;58.17;24.27;;;;;;;7.93;100.00;102493.63;5000338;28;20396;-48
2022/04/15 01:51:08;;;;;;;61.50;24.45;;;;;;;7.89;100.00;102500.09;5013395;28;20064;-50
2022/04/15 01:53:33;;;;;;;57.15;24.17;;;;;;;7.88;100.00;102504.56;5018906;28;20032;-46
2022/04/15 01:55:59;;;;;;;62.40;25.33;;;;;;;7.85;100.00;102504.75;5019342;28;20452;-46
2022/04/15 01:58:24;;;;;;;62.97;25.20;;;;;;;7.81;100.00;102501.44;5018790;28;20052;-47
2022/04/15 02:00:49;;;;;;;66.53;26.35;;;;;;;7.78;100.00;102501.66;4999693;28;20033;-47
2022/04/15 02:03:14;;;;;;;65.22;25.50;;;;;;;7.72;100.00;102501.19;4996313;28;20022;-46
2022/04/15 02:05:40;;;;;;;56.58;23.50;;;;;;;7.69;100.00;102512.03;5005219;28;20047;-48
2022/04/15 02:08:05;;;;;;;54.28;22.80;;;;;;;7.62;100.00;102512.47;5016854;28;20111;-46
2022/04/15 02:10:31;;;;;;;52.70;23.38;;;;;;;7.57;100.00;102516.34;5019270;28;20017;-46
2022/04/15 02:12:56;;;;;;;60.08;23.90;;;;;;;7.52;100.00;102506.03;5018648;28;20544;-46
2022/04/15 02:15:21;;;;;;;58.30;24.60;;;;;;;7.44;100.00;102509.19;5000646;28;20424;-47
2022/04/15 02:17:47;;;;;;;55.35;23.73;;;;;;;7.45;100.00;102513.56;5011721;28;20022;-47
2022/04/15 02:20:12;;;;;;;53.88;23.20;;;;;;;7.49;100.00;102524.00;5009443;28;20098;-48
2022/04/15 02:22:37;;;;;;;67.20;26.20;;;;;;;7.40;100.00;102523.63;5016875;28;20051;-46
2022/04/15 02:25:04;;;;;;;70.57;27.00;;;;;;;7.35;100.00;102524.88;5010749;28;20098;-48
2022/04/15 02:27:29;;;;;;;73.97;27.73;;;;;;;7.34;100.00;102520.53;4998553;28;20113;-47
2022/04/15 02:29:54;;;;;;;68.25;27.83;;;;;;;7.31;100.00;102531.34;5016383;28;20128;-47
2022/04/15 02:32:19;;;;;;;68.10;26.10;;;;;;;7.30;100.00;102535.81;5016814;28;20024;-49
2022/04/15 02:34:45;;;;;;;67.70;25.65;;;;;;;7.28;100.00;102535.03;5011434;28;20393;-48
2022/04/15 02:37:10;;;;;;;59.92;23.27;;;;;;;7.25;100.00;102535.25;4997541;28;20082;-47
2022/04/15 02:39:36;;;;;;;58.75;22.75;;;;;;;7.23;100.00;102537.13;4996999;28;20203;-46
2022/04/15 02:42:01;;;;;;;52.45;20.88;;;;;;;7.16;100.00;102531.38;5015529;28;20021;-48
2022/04/15 02:44:28;;;;;;;46.97;19.65;;;;;;;7.14;100.00;102535.06;5015846;28;20138;-48
2022/04/15 02:46:54;;;;;;;48.47;20.15;;;;;;;7.08;100.00;102531.00;5014307;28;20531;-47
2022/04/15 02:49:19;;;;;;;44.78;18.55;;;;;;;7.09;100.00;102536.22;5014811;28;20059;-47
2022/04/15 02:51:45;;;;;;;39.72;15.77;;;;;;;7.02;100.00;102536.69;5004328;28;20040;-47
2022/04/15 02:54:10;;;;;;;42.50;18.10;;;;;;;6.90;100.00;102539.16;4997707;28;20495;-51
2022/04/15 02:56:35;;;;;;;38.20;17.05;;;;;;;6.89;100.00;102539.25;5004322;28;20083;-46
2022/04/15 02:59:01;;;;;;;40.95;17.30;;;;;;;6.84;100.00;102542.22;5017637;28;20036;-48
2022/04/15 03:01:26;;;;;;;44.70;18.08;;;;;;;6.83;100.00;102542.31;4997514;28;20030;-46
2022/04/15 03:03:51;;;;;;;39.03;17.88;;;;;;;6.86;100.00;102542.13;4998348;28;20448;-46
2022/04/15 03:06:16;;;;;;;56.70;20.35;;;;;;;6.87;100.00;102534.06;4996840;28;20025;-46
2022/04/15 03:08:42;;;;;;;55.00;20.30;;;;;;;6.81;100.00;102531.78;4998218;28;20441;-47
2022/04/15 03:11:07;;;;;;;54.38;21.35;;;;;;;6.79;100.00;102538.13;4995786;28;20046;-47
2022/04/15 03:13:34;;;;;;;57.65;21.55;;;;;;;6.82;100.00;102548.56;4998555;28;20030;-48
2022/04/15 03:15:59;;;;;;;52.70;20.50;;;;;;;6.85;100.00;102545.72;4996017;28;20040;-47
2022/04/15 03:18:25;;;;;;;48.97;19.90;;;;;;;6.87;100.00;102544.69;5007354;28;20029;-47
2022/04/15 03:20:50;;;;;;;61.08;22.17;;;;;;;6.94;100.00;102545.13;5008409;28;20052;-45
2022/04/15 03:23:19;;;;;;;60.53;23.15;;;;;;;6.96;100.00;102547.69;5013946;28;20183;-47
2022/04/15 03:25:46;;;;;;;55.08;21.25;;;;;;;7.01;100.00;102549.13;5016837;28;20237;-51
2022/04/15 03:28:12;;;;;;;66.38;23.33;;;;;;;7.07;100.00;102540.75;5015556;28;20025;-47
2022/04/15 03:30:37;;;;;;;69.57;24.60;;;;;;;7.16;100.00;102542.00;5000101;28;20086;-47
2022/04/15 03:33:02;;;;;;;88.82;28.60;;;;;;;7.23;100.00;102548.63;5016615;28;20124;-47
2022/04/15 03:35:27;;;;;;;180.57;32.42;;;;;;;7.25;100.00;102549.38;5016940;28;20030;-50
2022/04/15 03:37:53;;;;;;;180.98;34.13;;;;;;;7.29;100.00;102558.00;5005915;28;20276;-48
2022/04/15 03:40:19;;;;;;;112.28;35.42;;;;;;;7.39;100.00;102558.28;4996953;28;20088;-48
2022/04/15 03:42:52;;;;;;;119.75;35.55;;;;;;;7.42;100.00;102558.09;4997447;28;20346;-47
2022/04/15 03:45:19;;;;;;;153.45;35.50;;;;;;;7.43;100.00;102555.34;4996616;28;20026;-47
2022/04/15 03:47:45;;;;;;;108.40;32.65;;;;;;;7.47;100.00;102559.50;5003901;28;20030;-47
2022/04/15 03:50:11;;;;;;;145.65;33.67;;;;;;;7.44;100.00;102559.69;5016147;28;20426;-51
2022/04/15 03:52:42;;;;;;;91.40;33.25;;;;;;;7.50;100.00;102565.56;5016772;28;20065;-49
2022/04/15 03:55:11;;;;;;;96.05;29.15;;;;;;;7.57;100.00;102565.09;5000620;28;20071;-49
2022/04/15 03:57:40;;;;;;;93.10;27.73;;;;;;;7.59;100.00;102575.63;5002232;28;20124;-48
2022/04/15 04:00:07;;;;;;;94.63;27.05;;;;;;;7.56;100.00;102581.97;4996814;28;20029;-48
2022/04/15 04:02:32;;;;;;;92.85;26.35;;;;;;;7.56;100.00;102576.66;5004283;28;20432;-48
2022/04/15 04:04:58;;;;;;;73.88;25.42;;;;;;;7.57;100.00;102582.81;5005352;28;20113;-47
2022/04/15 04:07:23;;;;;;;160.95;25.15;;;;;;;7.56;100.00;102581.97;4994680;28;20496;-49
2022/04/15 04:09:48;;;;;;;123.22;25.85;;;;;;;7.51;100.00;102581.41;5013491;28;20061;-47
2022/04/15 04:12:13;;;;;;;79.00;24.90;;;;;;;7.49;100.00;102587.81;5015485;28;20132;-48
2022/04/15 04:14:39;;;;;;;74.13;25.10;;;;;;;7.47;100.00;102580.78;5017591;28;20029;-51
2022/04/15 04:17:04;;;;;;;74.38;26.75;;;;;;;7.47;100.00;102583.44;5016585;28;20252;-47
2022/04/15 04:19:29;;;;;;;95.90;25.63;;;;;;;7.47;100.00;102585.25;5016013;28;20527;-47
2022/04/15 04:21:54;;;;;;;135.50;27.02;;;;;;;7.40;100.00;102590.09;5017632;28;20121;-50
2022/04/15 04:24:20;;;;;;;103.07;27.23;;;;;;;7.37;100.00;102590.28;5014501;28;20338;-47
2022/04/15 04:26:45;;;;;;;69.50;28.73;;;;;;;7.35;100.00;102602.81;5006657;28;20040;-49
2022/04/15 04:29:10;;;;;;;78.88;27.80;;;;;;;7.36;100.00;102593.03;4998972;28;20246;-46
2022/04/15 04:31:36;;;;;;;83.57;27.10;;;;;;;7.40;100.00;102598.06;4997052;28;20053;-48
2022/04/15 04:34:01;;;;;;;62.60;26.92;;;;;;;7.41;100.00;102593.59;4995047;28;20437;-51
2022/04/15 04:36:26;;;;;;;71.10;26.98;;;;;;;7.36;100.00;102607.16;5002386;28;20069;-48
2022/04/15 04:38:51;;;;;;;62.78;26.27;;;;;;;7.37;100.00;102606.22;5012083;28;20048;-46
2022/04/15 04:41:17;;;;;;;68.07;25.55;;;;;;;7.38;100.00;102605.28;5014094;28;20484;-46
2022/04/15 04:43:42;;;;;;;69.45;25.95;;;;;;;7.43;100.00;102607.63;4997565;28;20041;-48
2022/04/15 04:46:07;;;;;;;63.08;26.52;;;;;;;7.46;100.00;102605.63;5014314;28;20091;-48
2022/04/15 04:48:33;;;;;;;66.97;26.10;;;;;;;7.50;100.00;102606.28;4999510;28;20053;-48
2022/04/15 04:50:58;;;;;;;66.15;26.65;;;;;;;7.53;100.00;102611.41;5013617;28;20079;-50
2022/04/15 04:53:24;;;;;;;61.58;25.25;;;;;;;7.56;100.00;102611.22;5020122;28;20044;-48
2022/04/15 04:55:49;;;;;;;64.80;26.35;;;;;;;7.63;100.00;102617.84;5003632;28;20121;-48
2022/04/15 04:58:14;;;;;;;68.25;26.20;;;;;;;7.68;100.00;102622.88;4999472;28;20038;-51
2022/04/15 05:00:40;;;;;;;66.97;27.52;;;;;;;7.69;100.00;102619.28;5000088;28;20073;-47
2022/04/15 05:03:05;;;;;;;62.20;27.58;;;;;;;7.76;100.00;102620.59;5005719;28;20032;-47
2022/04/15 05:05:31;;;;;;;69.07;28.15;;;;;;;7.79;100.00;102624.84;5038945;28;20401;-46
2022/04/15 05:07:56;;;;;;;71.15;28.00;;;;;;;7.87;100.00;102635.00;5035617;28;20475;-47
2022/04/15 05:10:22;;;;;;;61.60;25.58;;;;;;;7.91;100.00;102633.84;5033614;28;20044;-49
2022/04/15 05:12:47;;;;;;;63.70;26.88;;;;;;;7.91;100.00;102628.50;5032385;28;20036;-47
2022/04/15 05:15:13;;;;;;;66.00;27.92;;;;;;;7.91;100.00;102628.50;5035454;28;20671;-48
2022/04/15 05:17:39;;;;;;;69.85;26.33;;;;;;;7.94;100.00;102639.84;5031561;28;20095;-48
2022/04/15 05:20:05;;;;;;;72.20;27.58;;;;;;;7.96;100.00;102637.94;5032246;28;20218;-48
2022/04/15 05:22:30;;;;;;;69.10;28.55;;;;;;;7.99;100.00;102650.16;5033993;28;20032;-49
2022/04/15 05:24:56;;;;;;;68.95;28.40;;;;;;;8.00;100.00;102644.75;5039370;28;20021;-50
2022/04/15 05:27:21;;;;;;;69.22;27.42;;;;;;;8.05;100.00;102654.25;5039197;28;20494;-48
2022/04/15 05:29:46;;;;;;;70.78;28.90;;;;;;;8.05;100.00;102660.41;5013672;28;20037;-51
2022/04/15 05:32:11;;;;;;;65.93;27.10;;;;;;;8.02;100.00;102649.97;4999968;28;20401;-49
2022/04/15 05:34:37;;;;;;;61.45;25.33;;;;;;;7.96;100.00;102658.34;5007930;28;20090;-47
2022/04/15 05:37:02;;;;;;;57.00;23.23;;;;;;;7.95;100.00;102667.28;5020035;28;20114;-47
2022/04/15 05:39:28;;;;;;;58.63;25.23;;;;;;;7.97;100.00;102668.03;5016317;28;20021;-48
2022/04/15 05:41:53;;;;;;;55.75;23.48;;;;;;;8.01;100.00;102666.88;5031744;28;20025;-48
2022/04/15 05:44:18;;;;;;;61.33;25.27;;;;;;;8.05;100.00;102667.56;5037788;28;20105;-47
2022/04/15 05:46:43;;;;;;;62.65;24.90;;;;;;;8.14;100.00;102674.94;5029415;28;20128;-48
2022/04/15 05:49:16;;;;;;;56.38;24.42;;;;;;;8.19;100.00;102678.16;5015125;28;20025;-48
2022/04/15 05:51:43;;;;;;;55.03;24.27;;;;;;;8.24;100.00;102683.19;5015699;28;20021;-46
2022/04/15 05:54:09;;;;;;;57.22;23.02;;;;;;;8.29;100.00;102695.22;5020961;28;20102;-48
2022/04/15 05:56:34;;;;;;;52.17;23.95;;;;;;;8.31;100.00;102690.63;5039649;28;20475;-46
2022/04/15 05:58:59;;;;;;;62.17;24.27;;;;;;;8.30;100.00;102691.63;5039033;28;20037;-47
2022/04/15 06:01:24;;;;;;;60.75;24.80;;;;;;;8.35;100.00;102699.28;5034756;28;20224;-47
2022/04/15 06:03:50;;;;;;;62.85;25.85;;;;;;;8.38;100.00;102697.28;5005789;28;20045;-46
2022/04/15 06:06:15;;;;;;;52.28;23.73;;;;;;;8.41;100.00;102696.22;4998620;28;20044;-48
2022/04/15 06:08:40;;;;;;;49.63;22.40;;;;;;;8.40;100.00;102698.03;4999715;28;20022;-50
2022/04/15 06:11:06;;;;;;;51.22;20.60;;;;;;;8.45;100.00;102700.41;4999787;28;20252;-46
2022/04/15 06:13:31;;;;;;;47.42;20.15;;;;;;;8.53;100.00;102708.75;4999846;28;20041;-47
2022/04/15 06:15:57;;;;;;;49.40;20.20;;;;;;;8.57;100.00;102704.94;4998130;28;20136;-46
2022/04/15 06:18:24;;;;;;;51.30;20.55;;;;;;;8.63;100.00;102711.66;4998773;28;20057;-52
2022/04/15 06:20:50;;;;;;;44.42;19.73;;;;;;;8.70;100.00;102720.94;4997183;28;20252;-48
2022/04/15 06:23:17;;;;;;;46.75;20.10;;;;;;;8.76;100.00;102720.53;5010996;28;20428;-48
2022/04/15 06:25:43;;;;;;;46.03;20.90;;;;;;;8.78;100.00;102717.78;5019032;28;20283;-49
2022/04/15 06:28:09;;;;;;;47.20;20.35;;;;;;;8.83;100.00;102715.66;5029840;28;20029;-49
2022/04/15 06:30:34;;;;;;;51.47;20.45;;;;;;;8.88;100.00;102723.34;5032102;28;20109;-47
2022/04/15 06:32:59;;;;;;;43.90;19.75;;;;;;;8.96;100.00;102723.66;5038692;28;20029;-47
2022/04/15 06:35:24;;;;;;;43.85;19.25;;;;;;;9.05;100.00;102716.88;5028088;28;20030;-47
2022/04/15 06:37:51;;;;;;;48.72;20.13;;;;;;;9.06;100.00;102723.88;5017920;28;20314;-47
2022/04/15 06:40:16;;;;;;;43.28;20.30;;;;;;;9.12;100.00;102736.81;5018483;28;20583;-47
2022/04/15 06:42:41;;;;;;;49.03;20.40;;;;;;;9.12;100.00;102735.00;5019127;28;20034;-48
2022/04/15 06:45:09;;;;;;;50.78;20.42;;;;;;;9.12;100.00;102732.31;5017831;28;20480;-48
2022/04/15 06:47:34;;;;;;;43.35;17.83;;;;;;;9.11;100.00;102732.41;5011391;28;20319;-49
2022/04/15 06:49:59;;;;;;;49.55;17.88;;;;;;;9.11;100.00;102735.09;4998079;28;20018;-48
2022/04/15 06:52:25;;;;;;;39.40;17.55;;;;;;;9.12;100.00;102740.31;4997442;28;20191;-47
2022/04/15 06:54:50;;;;;;;41.88;18.58;;;;;;;9.19;100.00;102746.09;5002087;28;20040;-47
2022/04/15 06:57:15;;;;;;;49.88;19.40;;;;;;;9.24;100.00;102746.63;5017501;28;20032;-47
2022/04/15 06:59:41;;;;;;;40.95;20.15;;;;;;;9.28;100.00;102745.47;5015649;28;20417;-47
2022/04/15 07:02:07;;;;;;;45.47;19.13;;;;;;;9.26;100.00;102741.19;5006256;28;20029;-47
2022/04/15 07:04:34;;;;;;;47.90;20.40;;;;;;;9.33;100.00;102748.66;4998426;28;20378;-50
2022/04/15 07:06:59;;;;;;;50.50;20.80;;;;;;;9.40;100.00;102748.22;5025946;28;20366;-50
2022/04/15 07:09:24;;;;;;;48.28;20.10;;;;;;;9.45;100.00;102751.44;5033368;28;20086;-49
2022/04/15 07:11:50;;;;;;;47.28;19.83;;;;;;;9.48;100.00;102753.88;5037694;28;20028;-50
2022/04/15 07:14:16;;;;;;;45.53;18.20;;;;;;;9.44;100.00;102757.75;5037190;28;20064;-49
2022/04/15 07:16:42;;;;;;;44.72;18.38;;;;;;;9.47;100.00;102757.50;5037900;28;20024;-49
2022/04/15 07:19:07;;;;;;;41.28;17.52;;;;;;;9.47;100.00;102757.50;5036094;28;20117;-47
2022/04/15 07:21:33;;;;;;;45.05;18.25;;;;;;;9.46;100.00;102763.81;5037898;28;20044;-49
2022/04/15 07:23:59;;;;;;;36.13;17.38;;;;;;;9.51;100.00;102761.69;4999807;28;20026;-48
2022/04/15 07:26:24;;;;;;;40.00;17.42;;;;;;;9.56;100.00;102764.88;5001530;28;20484;-48
2022/04/15 07:28:49;;;;;;;40.42;17.35;;;;;;;9.61;100.00;102768.06;4999875;28;20372;-48
2022/04/15 07:31:15;;;;;;;34.75;15.63;;;;;;;9.63;100.00;102762.63;4996441;28;20430;-48
2022/04/15 07:33:40;;;;;;;42.72;16.70;;;;;;;9.67;100.00;102772.13;4998027;28;20346;-50
2022/04/15 07:36:31;;;;;;;38.72;16.63;;;;;;;9.74;100.00;102769.88;5022828;28;20071;-49
2022/04/15 07:38:51;;;;;;;37.80;17.77;;;;;;;9.78;100.00;102774.06;4996614;28;20072;-47
2022/04/15 07:41:16;;;;;;;43.28;17.67;;;;;;;9.84;100.00;102782.47;5001772;28;20501;-47
2022/04/15 07:43:42;;;;;;;40.10;17.02;;;;;;;9.88;100.00;102781.28;4998448;28;20038;-51
2022/04/15 07:46:07;;;;;;;48.88;17.33;;;;;;;9.88;100.00;102783.97;4996825;28;20025;-51
2022/04/15 07:48:32;;;;;;;38.65;17.40;;;;;;;9.94;100.00;102773.81;5012130;28;20033;-46
2022/04/15 07:50:58;;;;;;;31.50;15.45;;;;;;;9.98;100.00;102778.81;5017461;28;20038;-47
2022/04/15 07:53:24;;;;;;;35.13;14.32;;;;;;;10.04;100.00;102778.38;5017046;28;20047;-47
2022/04/15 07:55:50;;;;;;;32.47;14.38;;;;;;;10.08;100.00;102779.88;5016544;28;20045;-50
2022/04/15 07:58:15;;;;;;;41.83;13.77;;;;;;;10.26;100.00;102783.00;5017255;28;20095;-47
2022/04/15 08:00:42;;;;;;;35.78;14.13;;;;;;;10.44;100.00;102786.19;5022723;28;20329;-47
2022/04/15 08:03:08;;;;;;;28.08;12.65;;;;;;;10.66;100.00;102779.28;4999584;28;20484;-46
2022/04/15 08:05:34;;;;;;;27.13;13.02;;;;;;;10.89;100.00;102779.38;5014675;28;20144;-51
2022/04/15 08:07:59;;;;;;;33.75;13.25;;;;;;;11.09;100.00;102783.22;5028442;28;20028;-48
2022/04/15 08:10:24;;;;;;;27.42;12.45;;;;;;;11.32;100.00;102779.63;5033155;28;20028;-49
2022/04/15 08:12:50;;;;;;;26.77;12.43;;;;;;;11.45;100.00;102781.34;5014107;28;20033;-48
2022/04/15 08:15:15;;;;;;;25.38;12.13;;;;;;;11.61;100.00;102784.53;5023956;28;20029;-47
2022/04/15 08:17:40;;;;;;;25.65;12.52;;;;;;;11.73;100.00;102782.72;5034175;28;20028;-48
2022/04/15 08:20:06;;;;;;;26.58;11.93;;;;;;;11.82;100.00;102783.81;5037363;28;20020;-43
2022/04/15 08:22:35;;;;;;;32.67;12.18;;;;;;;11.79;100.00;102787.56;5040329;28;20420;-42
2022/04/15 08:25:01;;;;;;;23.33;10.43;;;;;;;11.75;99.49;102786.97;5041246;28;20090;-42
2022/04/15 08:27:27;;;;;;;18.50;10.27;;;;;;;11.85;99.89;102791.63;5040346;28;20085;-43
2022/04/15 08:29:53;;;;;;;22.58;10.13;;;;;;;11.98;97.41;102787.00;5039049;28;20098;-42
2022/04/15 08:32:20;;;;;;;16.77;9.85;;;;;;;12.16;95.51;102792.72;5039814;28;20348;-43
2022/04/15 08:34:45;;;;;;;17.38;9.80;;;;;;;12.38;96.58;102797.19;5024435;28;20388;-42
2022/04/15 08:37:12;;;;;;;22.40;11.20;;;;;;;12.50;95.21;102796.16;5018324;28;20045;-42
2022/04/15 08:39:37;;;;;;;21.20;10.95;;;;;;;12.68;92.18;102799.19;5038058;28;20124;-43
2022/04/15 08:42:07;;;;;;;20.90;10.57;;;;;;;12.97;92.21;102798.56;5037197;28;20021;-42
2022/04/15 08:44:32;;;;;;;15.95;9.95;;;;;;;13.08;89.37;102800.34;5028529;28;20026;-42
2022/04/15 08:47:00;;;;;;;18.10;9.35;;;;;;;12.94;88.85;102806.03;5038458;28;20100;-43
2022/04/15 08:49:26;;;;;;;22.77;9.60;;;;;;;13.05;92.11;102808.66;5018931;28;20041;-44
2022/04/15 08:51:52;;;;;;;21.83;10.05;;;;;;;13.15;89.27;102790.81;5027671;28;20499;-41
2022/04/15 08:54:18;;;;;;;16.17;9.48;;;;;;;13.53;91.37;102805.50;5039326;28;20112;-44
2022/04/15 08:56:44;;;;;;;19.17;10.25;;;;;;;13.83;89.55;102809.16;5040769;28;20031;-46
2022/04/15 08:59:09;;;;;;;18.30;9.63;;;;;;;14.01;85.90;102804.03;5037909;28;20096;-45
2022/04/15 09:01:35;;;;;;;16.17;9.00;;;;;;;14.22;84.90;102817.38;5039866;28;20020;-44
2022/04/15 09:04:00;;;;;;;16.63;9.25;;;;;;;14.38;84.05;102811.50;5034128;28;20041;-44
2022/04/15 09:06:31;;;;;;;14.57;8.45;;;;;;;14.44;83.27;102810.09;5036652;28;20054;-42
2022/04/15 09:09:04;;;;;;;17.83;8.60;;;;;;;14.55;81.61;102816.19;5030390;28;20206;-42
2022/04/15 09:11:37;;;;;;;13.00;8.10;;;;;;;14.54;79.79;102821.69;5019099;28;20859;-45
2022/04/15 09:14:13;;;;;;;13.30;8.10;;;;;;;14.44;80.76;102819.00;5015024;28;20087;-43
2022/04/15 09:16:43;;;;;;;17.83;9.68;;;;;;;14.25;81.37;102822.47;5024510;28;20187;-43
2022/04/15 09:19:10;;;;;;;18.13;9.52;;;;;;;14.23;83.04;102821.78;5010035;28;20100;-44
2022/04/15 09:21:36;;;;;;;25.13;9.60;;;;;;;14.39;80.68;102821.25;4998385;28;20021;-44
2022/04/15 09:24:03;;;;;;;12.38;7.93;;;;;;;14.73;80.46;102815.53;5018505;28;20108;-46
2022/04/15 09:26:28;;;;;;;17.98;8.43;;;;;;;15.16;78.49;102814.28;5018951;28;20092;-44
2022/04/15 09:28:54;;;;;;;13.98;8.32;;;;;;;15.16;76.15;102825.03;5019784;28;20159;-44
2022/04/15 09:31:21;;;;;;;14.52;8.50;;;;;;;14.62;77.57;102829.13;5017710;28;20045;-43
2022/04/15 09:33:58;;;;;;;20.25;8.27;;;;;;;14.34;80.47;102824.38;5017416;28;20428;-42
2022/04/15 09:36:23;;;;;;;14.25;8.07;;;;;;;14.24;80.72;102833.38;5000453;28;20029;-44
2022/04/15 09:38:50;;;;;;;12.93;7.87;;;;;;;14.17;80.46;102833.94;5027120;28;20029;-44
2022/04/15 09:41:23;;;;;;;11.93;8.18;;;;;;;14.14;82.36;102834.19;5024335;28;20279;-43
2022/04/15 09:43:52;;;;;;;23.73;8.50;;;;;;;14.19;82.05;102836.50;5033519;28;20032;-43
2022/04/15 09:46:18;;;;;;;13.60;8.20;;;;;;;14.29;81.11;102841.88;5037494;28;20079;-42
2022/04/15 09:49:03;;;;;;;12.68;8.07;;;;;;;14.61;81.92;102844.38;5010897;28;20091;-42
2022/04/15 09:51:52;;;;;;;13.65;8.32;;;;;;;14.86;79.64;102842.16;5002381;28;20056;-44
2022/04/15 09:54:28;;;;;;;20.02;8.05;;;;;;;15.08;80.27;102838.34;5003769;28;20108;-41
2022/04/15 09:56:58;;;;;;;13.93;7.55;;;;;;;15.51;75.66;102837.03;5018266;28;20022;-41
2022/04/15 09:59:25;;;;;;;16.40;7.47;;;;;;;15.69;74.79;102837.13;5016031;28;20543;-44
2022/04/15 10:01:55;;;;;;;13.60;7.88;;;;;;;15.71;74.04;102843.22;5004101;28;20112;-43
2022/04/15 10:04:22;;;;;;;15.05;7.80;;;;;;;15.90;75.03;102836.94;4997308;28;20037;-43
2022/04/15 10:06:48;;;;;;;14.88;7.93;;;;;;;15.86;72.55;102846.31;4999366;28;20034;-45
2022/04/15 10:09:14;;;;;;;17.50;7.60;;;;;;;15.54;70.80;102838.59;4997754;28;20554;-42
2022/04/15 10:11:42;;;;;;;16.85;8.15;;;;;;;15.44;74.87;102841.28;5003422;28;20067;-43
2022/04/15 10:14:09;;;;;;;13.18;7.85;;;;;;;15.80;74.54;102839.69;5014952;28;20086;-44
2022/04/15 10:16:37;;;;;;;15.50;7.97;;;;;;;16.14;72.26;102843.66;5004744;28;20091;-45
2022/04/15 10:19:02;;;;;;;12.15;7.63;;;;;;;16.11;70.06;102839.44;5018226;28;20163;-43
2022/04/15 10:21:32;;;;;;;16.27;8.60;;;;;;;15.64;71.27;102839.41;5018223;28;20243;-45
2022/04/15 10:24:00;;;;;;;13.43;7.97;;;;;;;15.42;73.41;102836.03;5015454;28;20060;-43
2022/04/15 10:26:27;;;;;;;15.82;8.52;;;;;;;15.39;73.22;102840.88;5010070;28;20353;-44
2022/04/15 10:28:53;;;;;;;16.85;8.57;;;;;;;15.42;72.75;102838.75;5017771;28;20058;-43
2022/04/15 10:31:19;;;;;;;12.73;8.30;;;;;;;15.52;74.04;102841.41;5024044;28;20028;-44
2022/04/15 10:33:51;;;;;;;14.90;7.95;;;;;;;15.66;71.88;102835.59;5038167;28;20040;-45
2022/04/15 10:36:19;;;;;;;45.88;9.13;;;;;;;15.90;69.73;102836.94;5036835;28;20033;-43
2022/04/15 10:39:06;;;;;;;29.52;8.25;;;;;;;15.95;71.95;102823.88;5036886;28;20040;-41
2022/04/15 10:41:44;;;;;;;108.78;9.38;;;;;;;15.78;71.69;102832.72;5018497;28;20285;-42
2022/04/15 10:44:14;;;;;;;14.02;7.85;;;;;;;15.57;73.47;102830.22;5011136;28;20072;-43
2022/04/15 10:46:40;;;;;;;13.48;8.18;;;;;;;15.93;73.39;102827.72;5001988;28;20500;-45
2022/04/15 10:49:24;;;;;;;13.48;7.88;;;;;;;16.13;71.75;102825.81;4997278;28;20458;-42
2022/04/15 10:52:16;;;;;;;13.23;7.97;;;;;;;16.52;72.48;102829.13;4998632;28;20084;-43
2022/04/15 10:54:45;;;;;;;23.48;8.52;;;;;;;16.72;67.37;102831.69;5009317;28;20526;-43
2022/04/15 10:57:15;;;;;;;12.50;8.02;;;;;;;16.31;66.70;102832.09;5012472;28;20441;-44
2022/04/15 11:02:51;;;;;;;14.70;7.88;;;;;;;16.47;67.32;102831.44;5037759;28;20056;-45
2022/04/15 11:05:56;;;;;;;16.10;8.27;;;;;;;16.31;70.73;102836.63;5036683;28;20021;-44
2022/04/15 11:08:23;;;;;;;24.42;8.55;;;;;;;16.46;69.17;102831.56;5035542;28;20233;-44
2022/04/15 11:11:07;;;;;;;29.60;7.85;;;;;;;16.30;69.09;102827.69;5035778;28;20036;-44